Almaty, Kazakhstan
Current Conditions -  °F | °C
As of 8:00 AM on Thursday 23 Oct 2014 (Local Time) from UAAA Reporting Station
Haze Haze  
Wind Chill: 46°   Ceiling: 20000
Heat Index: 48°   Visibility: 3mi
Dew Point: 43°   Wind: 4mph
Humidity: 82%   Direction: 150°SSE
Pressure: 29.85"   Gusts: NA
Location:  43.32°N, 76.92°E
Report Text: UAAA 230200Z 15002MPS 5000 BR SCT100 BKN200 09/06 Q1011 R88/CLRD65 NOSIG
Loading
Personal Weather Stations






























Interactive Weather Map
Tropical Storm Tracking
New forecast layout! Learn more

10-Day Weather Forecast

Advertisements
Track Severe Weather on mobile